Time;durP1;ratioP1;P1;durP2;ratioP2;P2;SDS_P1;SDS_P2;PMS_P1;PMS_P2;Temp;Humidity;BMP_temperature;BMP_pressure;BME280_temperature;BME280_humidity;BME280_pressure;Samples;Min_cycle;Max_cycle;Signal;HPM_P1;HPM_P2
2024/01/28 00:00:43;;;;;;;8.23;3.53;;;;;;;1.27;97.38;102773.09;5002629;28;20212;-80
2024/01/28 00:03:09;;;;;;;11.73;3.90;;;;;;;1.25;97.49;102771.34;4997733;28;20226;-80
2024/01/28 00:05:36;;;;;;;9.93;3.97;;;;;;;1.24;98.22;102767.84;4999154;28;20214;-79
2024/01/28 00:08:06;;;;;;;8.53;3.60;;;;;;;1.21;97.95;102767.81;5002232;28;20211;-82
2024/01/28 00:10:32;;;;;;;9.37;3.43;;;;;;;1.20;98.34;102771.28;4999985;28;20204;-79
2024/01/28 00:12:59;;;;;;;12.43;3.57;;;;;;;1.18;98.25;102770.38;5000924;28;20624;-81
2024/01/28 00:15:25;;;;;;;11.67;4.10;;;;;;;1.12;98.18;102770.31;5003892;28;20211;-81
2024/01/28 00:17:55;;;;;;;9.70;3.47;;;;;;;1.07;97.42;102766.81;5003756;28;20227;-80
2024/01/28 00:20:21;;;;;;;11.33;3.80;;;;;;;1.02;97.20;102771.13;5001181;28;20277;-81
2024/01/28 00:22:48;;;;;;;12.40;3.70;;;;;;;0.99;97.67;102758.84;5000240;28;20242;-80
2024/01/28 00:25:16;;;;;;;11.23;3.60;;;;;;;0.94;97.55;102759.66;5002323;28;20238;-80
2024/01/28 00:27:43;;;;;;;5.90;3.83;;;;;;;0.88;97.19;102759.63;5003729;28;20262;-81
2024/01/28 00:30:10;;;;;;;11.57;3.97;;;;;;;0.86;97.58;102761.34;5003668;28;20679;-79
2024/01/28 00:32:36;;;;;;;11.03;4.73;;;;;;;0.79;98.06;102754.25;5001471;28;20220;-81
2024/01/28 00:35:04;;;;;;;6.87;3.80;;;;;;;0.76;98.57;102755.09;5006912;28;20212;-79
2024/01/28 00:37:30;;;;;;;9.07;4.00;;;;;;;0.74;99.21;102753.31;5003665;28;20275;-80
2024/01/28 00:39:57;;;;;;;14.47;5.40;;;;;;;0.73;99.04;102748.94;5004168;28;20212;-80
2024/01/28 00:42:24;;;;;;;12.23;3.93;;;;;;;0.71;99.23;102746.31;4998821;28;20229;-79
2024/01/28 00:44:51;;;;;;;6.87;4.27;;;;;;;0.69;99.46;102753.28;5001457;28;20204;-82
2024/01/28 00:47:17;;;;;;;9.83;4.00;;;;;;;0.67;100.00;102750.66;4995095;28;20207;-82
2024/01/28 00:49:44;;;;;;;9.90;3.37;;;;;;;0.65;100.00;102748.88;4995074;28;20200;-79
2024/01/28 00:52:10;;;;;;;10.40;4.00;;;;;;;0.62;100.00;102744.47;4997916;28;20346;-81
2024/01/28 00:54:37;;;;;;;12.80;4.50;;;;;;;0.61;100.00;102739.19;5002816;28;20226;-81
2024/01/28 00:57:04;;;;;;;7.60;4.87;;;;;;;0.59;100.00;102740.94;5005480;28;20211;-80
2024/01/28 00:59:31;;;;;;;8.67;4.63;;;;;;;0.54;100.00;102734.75;5003120;28;20224;-81
2024/01/28 01:01:58;;;;;;;10.13;3.90;;;;;;;0.50;99.91;102736.47;5001259;28;20212;-81
2024/01/28 01:04:25;;;;;;;11.03;3.87;;;;;;;0.45;99.70;102726.78;5003910;28;20232;-81
2024/01/28 01:06:51;;;;;;;10.13;3.40;;;;;;;0.37;99.25;102731.94;5004229;28;20242;-81
2024/01/28 01:09:18;;;;;;;9.63;4.00;;;;;;;0.31;98.88;102724.00;5004413;28;20225;-81
2024/01/28 01:11:44;;;;;;;11.23;4.83;;;;;;;0.24;98.70;102725.66;4998691;28;20231;-81
2024/01/28 01:14:11;;;;;;;7.83;3.70;;;;;;;0.20;98.49;102725.59;5002603;28;20223;-80
2024/01/28 01:16:38;;;;;;;9.93;4.07;;;;;;;0.07;98.77;102723.69;5002568;28;20219;-79
2024/01/28 01:19:05;;;;;;;11.33;4.30;;;;;;;0.00;99.55;102728.00;5000670;28;20236;-80
2024/01/28 01:21:32;;;;;;;11.90;4.03;;;;;;;-0.03;100.00;102718.34;4999973;28;20216;-79
2024/01/28 01:23:58;;;;;;;9.43;4.43;;;;;;;-0.06;100.00;102718.31;4999881;28;20223;-81
2024/01/28 01:26:25;;;;;;;12.70;5.07;;;;;;;-0.05;100.00;102709.59;5001417;28;20215;-79
2024/01/28 01:28:51;;;;;;;11.90;4.33;;;;;;;-0.04;100.00;102716.59;4998306;28;20207;-80
2024/01/28 01:31:18;;;;;;;10.90;4.93;;;;;;;-0.04;100.00;102713.09;4997405;28;20210;-79
2024/01/28 01:33:46;;;;;;;16.13;4.97;;;;;;;-0.06;100.00;102715.69;5002210;28;20234;-80
2024/01/28 01:36:12;;;;;;;8.90;3.80;;;;;;;-0.07;100.00;102716.56;5002827;28;20216;-79
2024/01/28 01:38:39;;;;;;;6.77;3.80;;;;;;;-0.12;100.00;102712.97;4997368;28;20736;-80
2024/01/28 01:41:05;;;;;;;14.27;3.80;;;;;;;-0.15;100.00;102707.69;5000317;28;20736;-79
2024/01/28 01:43:32;;;;;;;10.53;3.87;;;;;;;-0.18;100.00;102710.25;5001367;28;20648;-80
2024/01/28 01:45:59;;;;;;;12.80;4.07;;;;;;;-0.20;100.00;102709.41;5001373;28;20671;-80
2024/01/28 01:48:26;;;;;;;9.37;3.90;;;;;;;-0.23;100.00;102698.88;4997608;28;21142;-80
2024/01/28 01:50:55;;;;;;;7.83;3.57;;;;;;;-0.23;100.00;102704.09;5002528;28;20331;-80
2024/01/28 01:53:21;;;;;;;6.40;3.57;;;;;;;-0.24;100.00;102696.22;4998331;28;20777;-80
2024/01/28 01:55:48;;;;;;;8.20;3.87;;;;;;;-0.24;100.00;102704.97;5001444;28;20215;-81
2024/01/28 01:58:14;;;;;;;9.10;4.30;;;;;;;-0.27;100.00;102704.91;4996414;28;20239;-80
2024/01/28 02:00:42;;;;;;;9.57;4.93;;;;;;;-0.24;100.00;102711.94;5001092;28;20208;-79
2024/01/28 02:03:09;;;;;;;11.13;5.03;;;;;;;-0.26;100.00;102711.91;4999672;28;20273;-79
2024/01/28 02:05:35;;;;;;;8.63;3.80;;;;;;;-0.28;100.00;102704.91;4992472;28;20211;-79
2024/01/28 02:08:05;;;;;;;9.67;4.57;;;;;;;-0.30;100.00;102704.88;4992837;28;20214;-80
2024/01/28 02:10:31;;;;;;;8.53;3.50;;;;;;;-0.33;100.00;102702.19;4996319;28;20216;-79
2024/01/28 02:12:58;;;;;;;15.47;4.47;;;;;;;-0.33;100.00;102693.47;4998182;28;20246;-78
2024/01/28 02:15:24;;;;;;;14.20;4.10;;;;;;;-0.36;100.00;102689.09;4997819;28;20707;-81
2024/01/28 02:17:52;;;;;;;10.93;3.90;;;;;;;-0.38;100.00;102682.97;4996346;28;20601;-81
2024/01/28 02:20:19;;;;;;;7.90;4.30;;;;;;;-0.39;100.00;102686.44;4998139;28;20230;-81
2024/01/28 02:22:45;;;;;;;11.73;4.20;;;;;;;-0.42;100.00;102689.88;4992700;28;20318;-79
2024/01/28 02:25:13;;;;;;;6.30;4.20;;;;;;;-0.44;100.00;102682.84;4995641;28;20299;-80
2024/01/28 02:27:40;;;;;;;10.30;4.97;;;;;;;-0.48;100.00;102683.66;4998484;28;20585;-79
2024/01/28 02:30:07;;;;;;;6.80;3.83;;;;;;;-0.49;100.00;102687.13;4999182;28;20203;-78
2024/01/28 02:32:34;;;;;;;11.57;4.10;;;;;;;-0.49;100.00;102682.78;5002595;28;20253;-79
2024/01/28 02:35:00;;;;;;;14.43;4.37;;;;;;;-0.50;100.00;102677.53;4997389;28;20235;-80
2024/01/28 02:37:27;;;;;;;13.47;4.07;;;;;;;-0.52;100.00;102681.84;4998968;28;20211;-78
2024/01/28 02:39:56;;;;;;;13.37;4.17;;;;;;;-0.53;100.00;102675.75;4994291;28;20234;-78
2024/01/28 02:42:24;;;;;;;9.90;3.50;;;;;;;-0.52;100.00;102679.25;4993924;28;20691;-79
2024/01/28 02:44:51;;;;;;;9.70;4.23;;;;;;;-0.53;100.00;102673.13;4994507;28;20203;-80
2024/01/28 02:47:17;;;;;;;10.47;3.63;;;;;;;-0.54;100.00;102671.41;4994956;28;20207;-79
2024/01/28 02:49:43;;;;;;;8.37;3.33;;;;;;;-0.57;100.00;102665.22;4997159;28;20200;-79
2024/01/28 02:52:10;;;;;;;10.47;3.77;;;;;;;-0.58;100.00;102668.69;4994528;28;20203;-79
2024/01/28 02:54:36;;;;;;;10.30;3.13;;;;;;;-0.62;100.00;102667.78;4993799;28;20619;-80
2024/01/28 02:57:03;;;;;;;12.60;3.43;;;;;;;-0.62;100.00;102672.13;4995545;28;20276;-81
2024/01/28 02:59:31;;;;;;;8.70;4.03;;;;;;;-0.65;100.00;102666.84;4995441;28;20226;-79
2024/01/28 03:01:58;;;;;;;14.10;3.87;;;;;;;-0.66;100.00;102660.72;4997947;28;20214;-80
2024/01/28 03:04:24;;;;;;;13.40;4.87;;;;;;;-0.67;100.00;102653.72;4996615;28;20231;-81
2024/01/28 03:06:50;;;;;;;9.27;3.23;;;;;;;-0.67;100.00;102658.97;4996703;28;20203;-79
2024/01/28 03:09:18;;;;;;;9.00;3.60;;;;;;;-0.68;100.00;102646.72;4997132;28;20204;-79
2024/01/28 03:11:45;;;;;;;12.30;3.63;;;;;;;-0.71;100.00;102644.94;4998097;28;20243;-80
2024/01/28 03:14:11;;;;;;;11.73;3.60;;;;;;;-0.71;100.00;102646.69;4998148;28;20231;-80
2024/01/28 03:16:39;;;;;;;8.43;3.10;;;;;;;-0.72;100.00;102639.72;4995601;28;20200;-80
2024/01/28 03:19:09;;;;;;;10.47;3.30;;;;;;;-0.75;100.00;102645.78;4996733;28;20596;-78
2024/01/28 03:21:35;;;;;;;9.77;4.03;;;;;;;-0.76;100.00;102640.53;4993635;28;20231;-78
2024/01/28 03:24:02;;;;;;;13.10;3.27;;;;;;;-0.78;100.00;102632.66;5002006;28;20250;-79
2024/01/28 03:26:28;;;;;;;10.77;3.93;;;;;;;-0.80;100.00;102633.47;5006579;28;20206;-80
2024/01/28 03:28:55;;;;;;;15.87;5.73;;;;;;;-0.81;100.00;102624.75;4996298;28;20199;-79
2024/01/28 03:31:21;;;;;;;9.03;2.77;;;;;;;-0.83;100.00;102636.94;5002631;28;20226;-78
2024/01/28 03:33:49;;;;;;;9.87;2.90;;;;;;;-0.83;100.00;102623.84;4999794;28;20230;-79
2024/01/28 03:36:15;;;;;;;5.97;2.83;;;;;;;-0.81;100.00;102634.34;5003133;28;20207;-80
2024/01/28 03:38:42;;;;;;;10.37;2.97;;;;;;;-0.82;100.00;102637.81;4999497;28;20258;-79
2024/01/28 03:41:08;;;;;;;7.27;2.87;;;;;;;-0.82;100.00;102633.47;4998977;28;20210;-79
2024/01/28 03:43:35;;;;;;;6.93;2.50;;;;;;;-0.80;100.00;102643.94;5002586;28;20766;-80
2024/01/28 03:46:01;;;;;;;7.03;2.77;;;;;;;-0.80;100.00;102636.09;5005848;28;20271;-80
2024/01/28 03:48:28;;;;;;;12.13;4.23;;;;;;;-0.82;100.00;102633.47;5006436;28;20211;-81
2024/01/28 03:50:56;;;;;;;8.30;2.70;;;;;;;-0.84;100.00;102624.69;5003289;28;20604;-80
2024/01/28 03:53:22;;;;;;;7.93;3.10;;;;;;;-0.84;100.00;102629.94;5001204;28;20234;-79
2024/01/28 03:55:49;;;;;;;10.47;2.77;;;;;;;-0.88;100.00;102625.50;5009781;28;20212;-80
2024/01/28 03:58:15;;;;;;;10.73;2.80;;;;;;;-0.90;100.00;102629.88;5010629;28;20207;-79
2024/01/28 04:00:41;;;;;;;10.60;2.63;;;;;;;-0.92;100.00;102621.09;5005640;28;20228;-80
2024/01/28 04:03:08;;;;;;;8.23;2.77;;;;;;;-0.93;100.00;102626.31;5005062;28;20740;-80
2024/01/28 04:05:35;;;;;;;5.40;2.70;;;;;;;-0.94;100.00;102624.56;5003161;28;20211;-79
2024/01/28 04:08:03;;;;;;;5.57;2.70;;;;;;;-0.95;100.00;102617.56;5013865;28;20206;-80
2024/01/28 04:10:29;;;;;;;6.03;2.60;;;;;;;-0.96;100.00;102624.53;5009778;28;20218;-79
2024/01/28 04:12:56;;;;;;;7.87;2.70;;;;;;;-0.97;100.00;102624.50;5008470;28;20223;-79
2024/01/28 04:15:22;;;;;;;8.20;2.70;;;;;;;-0.98;100.00;102623.63;5009951;28;20203;-79
2024/01/28 04:17:49;;;;;;;6.93;2.90;;;;;;;-1.00;100.00;102622.72;5008612;28;20214;-80
2024/01/28 04:20:15;;;;;;;7.70;3.03;;;;;;;-1.01;100.00;102626.19;5006167;28;20231;-80
2024/01/28 04:22:42;;;;;;;8.07;2.60;;;;;;;-1.01;100.00;102631.41;5009833;28;20227;-80
2024/01/28 04:25:10;;;;;;;10.37;3.17;;;;;;;-1.03;100.00;102624.41;5010146;28;20213;-80
2024/01/28 04:27:37;;;;;;;8.87;3.00;;;;;;;-1.05;100.00;102620.03;5005263;28;20215;-80
2024/01/28 04:30:04;;;;;;;8.77;2.97;;;;;;;-1.07;100.00;102615.63;5006088;28;20204;-80
2024/01/28 04:32:31;;;;;;;9.53;2.87;;;;;;;-1.07;100.00;102616.50;5004902;28;20203;-79
2024/01/28 04:34:57;;;;;;;7.23;2.47;;;;;;;-1.06;100.00;102609.53;5008643;28;20203;-79
2024/01/28 04:37:26;;;;;;;14.93;3.07;;;;;;;-1.06;100.00;102606.91;5004666;28;20218;-80
2024/01/28 04:39:52;;;;;;;7.07;2.47;;;;;;;-1.05;100.00;102603.44;5003379;28;20314;-79
2024/01/28 04:42:22;;;;;;;8.07;2.47;;;;;;;-1.03;100.00;102601.75;5002299;28;20212;-79
2024/01/28 04:44:48;;;;;;;8.60;2.70;;;;;;;-1.00;100.00;102604.41;5005217;28;20219;-79
2024/01/28 04:47:15;;;;;;;7.90;2.40;;;;;;;-0.97;100.00;102609.69;5010554;28;20604;-80
2024/01/28 04:49:42;;;;;;;7.20;2.40;;;;;;;-0.95;100.00;102607.97;5004089;28;20227;-80
2024/01/28 04:52:08;;;;;;;9.57;2.17;;;;;;;-0.96;100.00;102608.84;5000608;28;20581;-80
2024/01/28 04:54:35;;;;;;;7.57;2.30;;;;;;;-0.99;100.00;102606.16;5002013;28;20241;-79
2024/01/28 04:57:02;;;;;;;6.10;2.20;;;;;;;-1.02;100.00;102607.84;5002637;28;20351;-80
2024/01/28 04:59:29;;;;;;;11.93;2.57;;;;;;;-1.07;100.00;102606.03;4995759;28;20223;-78
2024/01/28 05:01:56;;;;;;;6.03;1.90;;;;;;;-1.08;100.00;102598.19;5000296;28;20210;-79
2024/01/28 05:04:23;;;;;;;5.17;1.90;;;;;;;-1.11;100.00;102592.91;5001834;28;20679;-80
2024/01/28 05:06:50;;;;;;;13.00;3.20;;;;;;;-1.13;100.00;102589.41;5001339;28;20649;-80
2024/01/28 05:09:17;;;;;;;9.23;2.50;;;;;;;-1.15;100.00;102588.50;5000731;28;20203;-79
2024/01/28 05:11:44;;;;;;;6.53;2.30;;;;;;;-1.18;100.00;102580.59;4999621;28;20203;-78
2024/01/28 05:14:10;;;;;;;8.90;2.80;;;;;;;-1.19;100.00;102589.28;5002247;28;20230;-79
2024/01/28 05:16:38;;;;;;;8.43;2.30;;;;;;;-1.22;100.00;102584.88;4998789;28;20225;-79
2024/01/28 05:19:07;;;;;;;8.60;2.67;;;;;;;-1.23;100.00;102580.50;5010402;28;20211;-79
2024/01/28 05:21:33;;;;;;;5.80;2.10;;;;;;;-1.25;100.00;102578.72;4997251;28;20205;-79
2024/01/28 05:24:00;;;;;;;7.03;2.13;;;;;;;-1.25;100.00;102582.22;4999777;28;20235;-79
2024/01/28 05:26:27;;;;;;;8.17;2.20;;;;;;;-1.25;100.00;102573.50;5001740;28;20214;-79
2024/01/28 05:28:54;;;;;;;4.77;2.33;;;;;;;-1.25;100.00;102583.94;5002576;28;20889;-78
2024/01/28 05:31:20;;;;;;;9.93;2.57;;;;;;;-1.25;100.00;102586.56;5008778;28;20205;-79
2024/01/28 05:33:48;;;;;;;10.67;2.87;;;;;;;-1.25;100.00;102582.22;5000398;28;20238;-79
2024/01/28 05:36:16;;;;;;;9.90;3.43;;;;;;;-1.25;100.00;102579.59;5000760;28;20200;-79
2024/01/28 05:38:44;;;;;;;9.87;2.77;;;;;;;-1.22;100.00;102581.38;4997357;28;20218;-80
2024/01/28 05:41:10;;;;;;;5.37;2.63;;;;;;;-1.23;100.00;102583.13;4996272;28;20223;-80
2024/01/28 05:43:37;;;;;;;7.70;2.67;;;;;;;-1.21;100.00;102580.53;5005476;28;20241;-80
2024/01/28 05:46:04;;;;;;;8.33;2.50;;;;;;;-1.20;100.00;102582.31;5011915;28;20208;-80
2024/01/28 05:48:32;;;;;;;7.83;2.90;;;;;;;-1.17;100.00;102582.34;4996442;28;20215;-78
2024/01/28 05:51:00;;;;;;;10.93;2.97;;;;;;;-1.17;100.00;102582.34;5007653;28;20203;-80
2024/01/28 05:53:26;;;;;;;5.23;3.17;;;;;;;-1.17;100.00;102570.16;5003383;28;20230;-78
2024/01/28 05:55:53;;;;;;;5.83;2.73;;;;;;;-1.17;100.00;102571.91;5008858;28;20230;-79
2024/01/28 05:58:21;;;;;;;5.03;2.30;;;;;;;-1.19;100.00;102571.00;5002118;28;20207;-79
2024/01/28 06:00:47;;;;;;;8.47;2.53;;;;;;;-1.23;100.00;102567.44;4996185;28;20227;-80
2024/01/28 06:03:14;;;;;;;10.63;3.00;;;;;;;-1.23;100.00;102571.78;5010458;28;20233;-79
2024/01/28 06:05:41;;;;;;;8.80;2.80;;;;;;;-1.24;100.00;102570.91;5012723;28;20210;-80
2024/01/28 06:08:09;;;;;;;6.07;2.90;;;;;;;-1.24;100.00;102573.53;5002705;28;20231;-80
2024/01/28 06:10:36;;;;;;;10.43;2.93;;;;;;;-1.23;100.00;102574.41;5010447;28;20203;-80
2024/01/28 06:13:03;;;;;;;8.23;2.90;;;;;;;-1.24;100.00;102580.47;5004520;28;20259;-80
2024/01/28 06:15:29;;;;;;;4.90;2.17;;;;;;;-1.23;100.00;102582.25;5002366;28;20554;-80
2024/01/28 06:17:56;;;;;;;7.93;2.50;;;;;;;-1.25;100.00;102577.00;5002830;28;20223;-80
2024/01/28 06:20:23;;;;;;;9.37;2.73;;;;;;;-1.26;100.00;102580.50;5005536;28;20233;-79
2024/01/28 06:22:49;;;;;;;4.07;2.47;;;;;;;-1.26;100.00;102582.22;5000512;28;20696;-79
2024/01/28 06:25:17;;;;;;;9.40;3.00;;;;;;;-1.26;100.00;102574.38;5001749;28;20207;-79
2024/01/28 06:27:44;;;;;;;6.20;2.27;;;;;;;-1.23;100.00;102570.06;5003242;28;20203;-79
2024/01/28 06:30:12;;;;;;;7.10;2.37;;;;;;;-1.22;100.00;102569.19;5003342;28;20214;-79
2024/01/28 06:32:38;;;;;;;9.23;3.13;;;;;;;-1.20;100.00;102566.63;5006267;28;20223;-79
2024/01/28 06:35:05;;;;;;;7.90;3.03;;;;;;;-1.17;100.00;102566.66;5006338;28;20207;-79
2024/01/28 06:37:31;;;;;;;5.03;2.40;;;;;;;-1.16;100.00;102568.44;4998263;28;20215;-78
2024/01/28 06:39:58;;;;;;;8.90;2.80;;;;;;;-1.16;100.00;102563.19;4997600;28;20255;-80
2024/01/28 06:42:26;;;;;;;6.70;2.80;;;;;;;-1.14;100.00;102569.34;4999443;28;20251;-78
2024/01/28 06:44:52;;;;;;;9.20;2.43;;;;;;;-1.14;100.00;102564.97;4998629;28;20203;-79
2024/01/28 06:47:18;;;;;;;10.00;2.67;;;;;;;-1.16;100.00;102569.31;5001049;28;20208;-78
2024/01/28 06:49:45;;;;;;;7.20;2.37;;;;;;;-1.16;100.00;102568.44;4999035;28;20517;-80
2024/01/28 06:52:12;;;;;;;9.93;3.00;;;;;;;-1.17;100.00;102566.66;4994754;28;20218;-80
2024/01/28 06:54:40;;;;;;;6.10;2.10;;;;;;;-1.17;100.00;102566.66;4991532;28;20235;-78
2024/01/28 06:57:06;;;;;;;7.40;2.47;;;;;;;-1.16;100.00;102569.31;4998794;28;20215;-79
2024/01/28 06:59:35;;;;;;;10.33;2.70;;;;;;;-1.14;100.00;102569.34;4995803;28;20200;-79
2024/01/28 07:02:01;;;;;;;8.13;2.77;;;;;;;-1.13;100.00;102561.50;5002901;28;20561;-79
2024/01/28 07:04:28;;;;;;;7.50;2.53;;;;;;;-1.09;100.00;102567.69;4998921;28;20931;-78
2024/01/28 07:06:54;;;;;;;8.13;3.57;;;;;;;-1.07;100.00;102566.81;5004720;28;20203;-78
2024/01/28 07:09:21;;;;;;;7.30;2.90;;;;;;;-1.03;100.00;102570.34;5004763;28;20203;-79
2024/01/28 07:11:47;;;;;;;7.83;2.83;;;;;;;-1.01;100.00;102558.19;5000122;28;20207;-79
2024/01/28 07:14:14;;;;;;;10.03;2.90;;;;;;;-0.98;100.00;102566.09;5001149;28;20227;-80
2024/01/28 07:16:42;;;;;;;9.47;2.57;;;;;;;-0.97;100.00;102554.78;4996607;28;20211;-79
2024/01/28 07:19:08;;;;;;;12.23;3.20;;;;;;;-0.95;100.00;102554.78;4990427;28;20219;-79
2024/01/28 07:21:35;;;;;;;7.97;3.00;;;;;;;-0.93;100.00;102538.28;5000175;28;20236;-79
2024/01/28 07:24:03;;;;;;;11.10;3.30;;;;;;;-0.92;100.00;102537.41;4997584;28;20285;-80
2024/01/28 07:26:30;;;;;;;8.90;2.93;;;;;;;-0.89;100.00;102529.59;5003566;28;20207;-80
2024/01/28 07:28:56;;;;;;;8.63;3.00;;;;;;;-0.86;100.00;102533.97;5001087;28;20616;-80
2024/01/28 07:31:23;;;;;;;7.93;3.10;;;;;;;-0.85;100.00;102539.22;5007834;28;20705;-79
2024/01/28 07:33:50;;;;;;;9.60;3.10;;;;;;;-0.84;100.00;102538.38;4999795;28;20306;-78
2024/01/28 07:36:17;;;;;;;13.10;4.03;;;;;;;-0.82;100.00;102526.22;5000799;28;20200;-78
2024/01/28 07:38:43;;;;;;;6.73;2.80;;;;;;;-0.75;100.00;102528.06;5001239;28;20663;-79
2024/01/28 07:41:14;;;;;;;7.67;3.17;;;;;;;-0.73;100.00;102528.06;5007633;28;20227;-79
2024/01/28 07:43:40;;;;;;;9.80;3.40;;;;;;;-0.71;100.00;102532.44;5004657;28;20247;-80
2024/01/28 07:46:07;;;;;;;10.20;4.07;;;;;;;-0.69;100.00;102537.69;5007618;28;20211;-80
2024/01/28 07:48:33;;;;;;;6.13;3.87;;;;;;;-0.66;100.00;102537.75;5005748;28;20223;-80
2024/01/28 07:51:01;;;;;;;10.90;2.77;;;;;;;-0.60;100.00;102529.97;5007452;28;20204;-79
2024/01/28 07:53:27;;;;;;;8.93;4.67;;;;;;;-0.56;100.00;102520.44;5006666;28;20238;-79
2024/01/28 07:55:54;;;;;;;9.50;2.77;;;;;;;-0.50;100.00;102531.84;5007304;28;20614;-80
2024/01/28 07:58:21;;;;;;;11.73;3.10;;;;;;;-0.46;100.00;102528.41;5007914;28;20292;-79
2024/01/28 08:00:47;;;;;;;6.00;2.93;;;;;;;-0.42;100.00;102534.56;5011320;28;20625;-80
2024/01/28 08:03:14;;;;;;;6.73;2.97;;;;;;;-0.31;100.00;102525.06;5011970;28;20333;-79
2024/01/28 08:05:41;;;;;;;9.53;2.87;;;;;;;-0.23;100.00;102527.78;5006803;28;20203;-80
2024/01/28 08:08:10;;;;;;;12.60;3.30;;;;;;;-0.14;100.00;102530.50;5002020;28;20203;-80
2024/01/28 08:10:36;;;;;;;9.13;3.37;;;;;;;-0.10;100.00;102530.56;5008501;28;20265;-79
2024/01/28 08:13:05;;;;;;;7.97;3.30;;;;;;;0.03;100.00;102526.31;5009771;28;20223;-80
2024/01/28 08:15:32;;;;;;;8.23;3.30;;;;;;;0.10;100.00;102520.28;5008920;28;20214;-80
2024/01/28 08:17:58;;;;;;;13.07;3.83;;;;;;;0.14;100.00;102527.31;5009015;28;20200;-80
2024/01/28 08:20:25;;;;;;;5.77;2.27;;;;;;;0.20;100.00;102514.25;5011967;28;20227;-80
2024/01/28 08:22:51;;;;;;;8.50;2.97;;;;;;;0.27;100.00;102518.69;5009980;28;20227;-80
2024/01/28 08:25:19;;;;;;;6.97;2.80;;;;;;;0.32;100.00;102510.88;5010747;28;20215;-80
2024/01/28 08:27:46;;;;;;;9.60;2.60;;;;;;;0.39;100.00;102512.66;5006550;28;20285;-81
2024/01/28 08:30:13;;;;;;;6.13;3.23;;;;;;;0.44;100.00;102510.97;5011093;28;20217;-80
2024/01/28 08:32:39;;;;;;;9.83;2.70;;;;;;;0.49;100.00;102508.38;5011023;28;20262;-80
2024/01/28 08:35:06;;;;;;;6.53;2.50;;;;;;;0.54;100.00;102497.03;5004140;28;20331;-80
2024/01/28 08:37:33;;;;;;;6.40;2.37;;;;;;;0.61;100.00;102498.84;5007338;28;20209;-80
2024/01/28 08:39:59;;;;;;;5.80;2.50;;;;;;;0.67;100.00;102500.66;5011779;28;20220;-81
2024/01/28 08:42:28;;;;;;;7.27;2.80;;;;;;;0.76;100.00;102502.44;5007831;28;20203;-81
2024/01/28 08:44:55;;;;;;;9.73;2.70;;;;;;;0.83;100.00;102499.00;5008904;28;20218;-80
2024/01/28 08:47:21;;;;;;;8.20;3.37;;;;;;;0.91;100.00;102502.53;5002911;28;20215;-81
2024/01/28 08:49:48;;;;;;;11.47;2.70;;;;;;;0.99;100.00;102501.72;5007165;28;20633;-81
2024/01/28 08:52:15;;;;;;;3.90;2.50;;;;;;;1.08;100.00;102508.75;5002932;28;20195;-81
2024/01/28 08:54:45;;;;;;;7.00;3.33;;;;;;;1.19;100.00;102512.31;5008965;28;20223;-81
2024/01/28 08:57:11;;;;;;;5.53;2.30;;;;;;;1.30;100.00;102510.63;5004514;28;20211;-80
2024/01/28 08:59:39;;;;;;;4.50;2.57;;;;;;;1.46;99.78;102502.81;5003548;28;20200;-82
2024/01/28 09:02:05;;;;;;;6.07;2.00;;;;;;;1.64;96.65;102505.47;5001384;28;20246;-80
2024/01/28 09:04:32;;;;;;;7.27;2.77;;;;;;;1.81;95.72;102518.66;5005428;28;20743;-81
2024/01/28 09:06:58;;;;;;;6.80;2.00;;;;;;;1.95;94.31;102504.72;5005980;28;20207;-80
2024/01/28 09:09:26;;;;;;;6.37;1.90;;;;;;;2.11;92.34;102500.34;5004766;28;20574;-81
2024/01/28 09:11:52;;;;;;;3.13;1.33;;;;;;;2.26;90.40;102484.56;5003778;28;20203;-81
2024/01/28 09:14:19;;;;;;;5.43;1.63;;;;;;;2.41;88.59;102492.47;4997609;28;20243;-81
2024/01/28 09:16:46;;;;;;;6.23;1.70;;;;;;;2.56;86.94;102491.56;5004355;28;20219;-81
2024/01/28 09:19:13;;;;;;;6.10;2.10;;;;;;;2.68;86.23;102491.56;5001618;28;20303;-81
2024/01/28 09:21:39;;;;;;;6.70;2.00;;;;;;;2.82;85.46;102496.81;5005291;28;20227;-80
2024/01/28 09:24:06;;;;;;;7.17;1.73;;;;;;;2.91;85.72;102491.50;5002902;28;20241;-81
2024/01/28 09:26:32;;;;;;;5.23;2.27;;;;;;;3.03;83.41;102498.50;4999619;28;20271;-81
2024/01/28 09:28:59;;;;;;;4.50;1.77;;;;;;;3.14;81.50;102481.78;5008244;28;20279;-80
2024/01/28 09:31:25;;;;;;;8.40;2.10;;;;;;;3.28;81.73;102489.63;5005381;28;20202;-80
2024/01/28 09:33:53;;;;;;;4.43;2.60;;;;;;;3.40;80.86;102486.94;5003784;28;20294;-81
2024/01/28 09:36:20;;;;;;;6.13;2.27;;;;;;;3.52;79.94;102485.16;5001061;28;20211;-81
2024/01/28 09:38:46;;;;;;;7.33;2.30;;;;;;;3.62;78.97;102479.81;5005161;28;20207;-80
2024/01/28 09:41:19;;;;;;;4.57;1.70;;;;;;;3.68;79.11;102473.63;5004087;28;20219;-81
2024/01/28 09:43:45;;;;;;;5.13;2.83;;;;;;;3.76;78.51;102475.31;4998656;28;20223;-81
2024/01/28 09:46:12;;;;;;;4.23;2.00;;;;;;;3.85;77.99;102477.03;5001298;28;20786;-81
2024/01/28 09:48:39;;;;;;;7.40;2.00;;;;;;;3.94;77.72;102474.31;5006090;28;20211;-83
2024/01/28 09:51:08;;;;;;;7.57;2.23;;;;;;;4.03;77.13;102476.03;5003882;28;20210;-81
2024/01/28 09:53:35;;;;;;;8.93;2.23;;;;;;;4.11;76.89;102476.88;5001026;28;20223;-81
2024/01/28 09:56:02;;;;;;;3.40;1.67;;;;;;;4.21;76.02;102468.00;5001747;28;20207;-81
2024/01/28 09:58:28;;;;;;;3.67;1.30;;;;;;;4.31;74.89;102476.69;5004225;28;20241;-81
2024/01/28 10:00:55;;;;;;;4.87;1.93;;;;;;;4.36;74.71;102477.53;5007266;28;21794;-81
2024/01/28 10:03:22;;;;;;;4.73;1.70;;;;;;;4.46;73.50;102480.09;5007448;28;20230;-82
2024/01/28 10:05:48;;;;;;;5.00;2.27;;;;;;;4.58;72.33;102475.59;5002821;28;20204;-81
2024/01/28 10:08:17;;;;;;;3.83;2.50;;;;;;;4.66;72.31;102471.97;5004809;28;20215;-83
2024/01/28 10:10:43;;;;;;;6.97;2.27;;;;;;;4.73;71.24;102475.44;5003092;28;20200;-80
2024/01/28 10:13:09;;;;;;;5.33;1.50;;;;;;;4.79;70.34;102470.97;5005076;28;20235;-80
2024/01/28 10:15:36;;;;;;;5.60;1.80;;;;;;;4.85;69.25;102472.66;5000292;28;20732;-81
2024/01/28 10:18:03;;;;;;;2.93;1.50;;;;;;;4.93;68.46;102469.94;5004891;28;20592;-82
2024/01/28 10:20:30;;;;;;;4.80;2.10;;;;;;;4.99;68.33;102469.88;5003459;28;20694;-81
2024/01/28 10:22:57;;;;;;;6.20;1.50;;;;;;;5.03;66.79;102467.16;5004320;28;20224;-81
2024/01/28 10:25:25;;;;;;;5.23;1.63;;;;;;;5.11;66.37;102462.69;5002358;28;20217;-81
2024/01/28 10:27:52;;;;;;;4.17;1.43;;;;;;;5.17;66.88;102456.47;4998775;28;20205;-81
2024/01/28 10:30:19;;;;;;;4.73;1.23;;;;;;;5.23;65.99;102461.66;5007388;28;20214;-82
2024/01/28 10:32:46;;;;;;;4.53;1.90;;;;;;;5.28;64.81;102462.47;5001625;28;20223;-81
2024/01/28 10:35:13;;;;;;;5.47;1.33;;;;;;;5.34;64.48;102459.75;5008681;28;20203;-82
2024/01/28 10:37:41;;;;;;;4.57;1.70;;;;;;;5.39;64.55;102454.41;5002722;28;20211;-82
2024/01/28 10:40:09;;;;;;;3.63;1.50;;;;;;;5.42;64.54;102454.38;5004811;28;20215;-81
2024/01/28 10:42:39;;;;;;;4.73;1.93;;;;;;;5.45;63.92;102449.91;4999138;28;20227;-81
2024/01/28 10:45:07;;;;;;;3.77;1.50;;;;;;;5.51;63.19;102449.84;5001931;28;20214;-82
2024/01/28 10:47:36;;;;;;;4.17;1.80;;;;;;;5.52;63.39;102450.72;4996565;28;20236;-82
2024/01/28 10:50:07;;;;;;;4.83;1.60;;;;;;;5.52;63.53;102448.94;4997636;28;20243;-81
2024/01/28 10:52:34;;;;;;;4.37;1.83;;;;;;;5.56;63.73;102445.34;4997369;28;20261;-81
2024/01/28 10:55:01;;;;;;;4.50;1.53;;;;;;;5.61;63.92;102437.34;4995628;28;20211;-81
2024/01/28 10:57:28;;;;;;;4.67;2.00;;;;;;;5.67;62.66;102431.13;4996738;28;20213;-81
2024/01/28 10:59:56;;;;;;;3.73;1.63;;;;;;;5.71;63.38;102430.19;4999043;28;20207;-82
2024/01/28 11:02:23;;;;;;;3.90;1.93;;;;;;;5.75;63.29;102421.28;4995785;28;20231;-79
2024/01/28 11:04:50;;;;;;;4.83;1.80;;;;;;;5.77;63.21;102419.50;4995779;28;20227;-80
2024/01/28 11:07:19;;;;;;;4.47;2.07;;;;;;;5.79;62.35;102415.94;5000631;28;20595;-81
2024/01/28 11:09:46;;;;;;;5.07;1.87;;;;;;;5.81;62.67;102413.28;5002288;28;20215;-80
2024/01/28 11:12:13;;;;;;;4.67;1.53;;;;;;;5.83;63.13;102403.56;5001564;28;20215;-82
2024/01/28 11:14:40;;;;;;;6.60;2.50;;;;;;;5.87;62.67;102400.84;5005474;28;20229;-81
2024/01/28 11:17:10;;;;;;;4.17;1.43;;;;;;;5.93;62.70;102397.22;5006816;28;20310;-82
2024/01/28 11:19:37;;;;;;;7.20;1.93;;;;;;;5.98;62.75;102403.34;5008655;28;20203;-82